KLNK/LNK METAR and TAF weather

Enter ICAO airport designator
Station Type Date Time Source
KLNK METAR 2019/02/21 10:54 UTC NOAA

KLNK 211054Z 00000KT 7SM CLR M19/M19 A3008 RMK AO2 SLP209 I1000 T11891194


Station Type Date Time Source
KLNK Decoded METAR 2019/02/21 10:54 UTC NOAA

LINCOLN MUNICIPAL AIRPORT, NE, United States (KLNK) 40-50N 96-46W 364M
Feb 21, 2019 - 05:54 AM EST / 2019.02.21 1054 UTC
Wind: Calm:0
Visibility: 7 mile(s):0
Sky conditions: clear
Temperature: -2.0 F (-18.9 C)
Dew Point: -2.9 F (-19.4 C)
Relative Humidity: 95%
Pressure (altimeter): 30.08 in. Hg (1018 hPa)
ob: KLNK 211054Z 00000KT 7SM CLR M19/M19 A3008 RMK AO2 SLP209 I1000 T11891194
cycle: 11

Station Type Date Time Source
KLNK TAF 2019/02/21 12:39 UTC NOAA

TAF KLNK 211136Z 2112/2212 VRB05KT P6SM SKC
FM212100 09007KT P6SM BKN250 PROB30 2206/2212 5SM -SN OVC030


Example: see airport list